createdAt,value
2023-04-10T00:00:28.935Z,0.00
2023-04-10T00:01:28.922Z,0.00
2023-04-10T00:02:29.157Z,0.00
2023-04-10T00:03:29.054Z,0.00
2023-04-10T00:04:28.986Z,0.00
2023-04-10T00:05:28.905Z,0.00
2023-04-10T00:06:28.900Z,0.00
2023-04-10T00:07:28.874Z,0.00
2023-04-10T00:08:28.879Z,0.00
2023-04-10T00:09:28.842Z,0.00
2023-04-10T00:10:28.825Z,0.00
2023-04-10T00:11:28.825Z,0.00
2023-04-10T00:12:28.819Z,0.00
2023-04-10T00:13:28.811Z,0.00
2023-04-10T00:14:28.789Z,0.00
2023-04-10T00:15:28.853Z,0.00
2023-04-10T00:16:28.792Z,0.00
2023-04-10T00:17:28.801Z,0.00
2023-04-10T00:18:28.771Z,0.00
2023-04-10T00:19:28.828Z,0.00
2023-04-10T00:20:28.730Z,0.00
2023-04-10T00:21:28.710Z,0.00
2023-04-10T00:22:28.711Z,0.00
2023-04-10T00:23:28.708Z,0.00
2023-04-10T00:24:28.707Z,0.00
2023-04-10T00:25:28.699Z,0.00
2023-04-10T00:26:28.621Z,1.00
2023-04-10T00:27:28.655Z,0.00
2023-04-10T00:28:28.654Z,0.00
2023-04-10T00:29:28.673Z,0.00
2023-04-10T00:30:28.631Z,0.00
2023-04-10T00:31:28.608Z,1.00
2023-04-10T00:32:28.604Z,0.00
2023-04-10T00:33:28.595Z,0.00
2023-04-10T00:34:28.579Z,0.00
2023-04-10T00:35:28.595Z,0.00
2023-04-10T00:36:28.578Z,0.00
2023-04-10T00:37:28.536Z,0.00
2023-04-10T00:38:28.559Z,0.00
2023-04-10T00:39:28.536Z,0.00
2023-04-10T00:40:36.701Z,0.00
2023-04-10T00:41:28.519Z,0.00
2023-04-10T00:42:28.487Z,0.00
2023-04-10T00:43:28.491Z,0.00
2023-04-10T00:44:28.468Z,0.00
2023-04-10T00:45:28.478Z,0.00
2023-04-10T00:46:28.460Z,0.00
2023-04-10T00:47:28.486Z,0.00
2023-04-10T00:48:28.415Z,0.00
2023-04-10T00:49:28.436Z,0.00
2023-04-10T00:50:28.412Z,0.00
2023-04-10T00:51:28.387Z,0.00
2023-04-10T00:52:28.380Z,0.00
2023-04-10T00:53:28.380Z,0.00
2023-04-10T00:54:28.349Z,0.00
2023-04-10T00:55:28.367Z,0.00
2023-04-10T00:56:28.375Z,0.00
2023-04-10T00:57:28.355Z,0.00
2023-04-10T00:58:28.305Z,0.00
2023-04-10T00:59:28.304Z,0.00
2023-04-10T01:00:28.317Z,0.00
2023-04-10T01:01:28.394Z,0.00
2023-04-10T01:02:28.358Z,0.00
2023-04-10T01:03:28.404Z,0.00
2023-04-10T01:04:28.411Z,0.00
2023-04-10T01:05:28.249Z,0.00
2023-04-10T01:06:28.248Z,0.00
2023-04-10T01:07:28.309Z,0.00
2023-04-10T01:08:28.217Z,0.00
2023-04-10T01:09:28.226Z,0.00
2023-04-10T01:10:28.256Z,0.00
2023-04-10T01:11:28.175Z,0.00
2023-04-10T01:12:28.163Z,0.00
2023-04-10T01:13:28.217Z,0.00
2023-04-10T01:14:28.122Z,0.00
2023-04-10T01:15:28.165Z,0.00
2023-04-10T01:16:28.210Z,0.00
2023-04-10T01:17:28.193Z,0.00
2023-04-10T01:18:28.092Z,0.00
2023-04-10T01:19:28.148Z,0.00
2023-04-10T01:20:28.071Z,0.00
2023-04-10T01:21:28.081Z,0.00
2023-04-10T01:22:28.131Z,0.00
2023-04-10T01:23:28.066Z,0.00
2023-04-10T01:24:28.037Z,0.00
2023-04-10T01:25:28.058Z,0.00
2023-04-10T01:26:28.000Z,0.00
2023-04-10T01:27:28.000Z,0.00
2023-04-10T01:28:28.065Z,0.00
2023-04-10T01:29:27.980Z,0.00
2023-04-10T01:30:27.969Z,0.00
2023-04-10T01:31:28.018Z,0.00
2023-04-10T01:32:28.011Z,0.00
2023-04-10T01:33:27.973Z,0.00
2023-04-10T01:34:28.051Z,0.00
2023-04-10T01:35:27.934Z,1.00
2023-04-10T01:36:27.945Z,0.00
2023-04-10T01:37:27.936Z,0.00
2023-04-10T01:38:27.898Z,0.00
2023-04-10T01:39:27.898Z,0.00
2023-04-10T01:40:27.923Z,0.00
2023-04-10T01:41:27.863Z,0.00
2023-04-10T01:42:27.832Z,0.00
2023-04-10T01:43:27.849Z,0.00
2023-04-10T01:44:27.833Z,0.00
2023-04-10T01:45:27.820Z,0.00
2023-04-10T01:46:27.868Z,0.00
2023-04-10T01:47:27.815Z,0.00
2023-04-10T01:48:27.781Z,0.00
2023-04-10T01:49:27.822Z,0.00
2023-04-10T01:50:27.750Z,0.00
2023-04-10T01:51:27.750Z,0.00
2023-04-10T01:52:27.771Z,0.00
2023-04-10T01:53:27.729Z,0.00
2023-04-10T01:54:34.232Z,0.00
2023-04-10T01:55:27.715Z,0.00
2023-04-10T01:56:27.713Z,0.00
2023-04-10T01:57:28.271Z,0.00
2023-04-10T01:58:27.677Z,0.00
2023-04-10T01:59:27.678Z,0.00
2023-04-10T02:00:27.701Z,0.00
2023-04-10T02:01:30.224Z,0.00
2023-04-10T02:02:27.791Z,0.00
2023-04-10T02:03:27.878Z,0.00
2023-04-10T02:04:27.793Z,0.00
2023-04-10T02:05:27.601Z,0.00
2023-04-10T02:06:27.604Z,0.00
2023-04-10T02:07:27.612Z,0.00
2023-04-10T02:08:27.576Z,0.00
2023-04-10T02:09:27.559Z,0.00
2023-04-10T02:10:27.553Z,0.00
2023-04-10T02:11:27.626Z,0.00
2023-04-10T02:12:27.596Z,0.00
2023-04-10T02:13:27.543Z,0.00
2023-04-10T02:14:27.498Z,0.00
2023-04-10T02:15:27.557Z,0.00
2023-04-10T02:16:27.617Z,0.00
2023-04-10T02:17:27.553Z,0.00
2023-04-10T02:18:27.553Z,0.00
2023-04-10T02:19:27.470Z,0.00
2023-04-10T02:20:27.433Z,0.00
2023-04-10T02:21:27.471Z,0.00
2023-04-10T02:22:27.426Z,0.00
2023-04-10T02:23:27.429Z,0.00
2023-04-10T02:24:27.418Z,0.00
2023-04-10T02:25:27.393Z,0.00
2023-04-10T02:26:27.375Z,0.00
2023-04-10T02:27:27.433Z,0.00
2023-04-10T02:28:27.339Z,0.00
2023-04-10T02:29:27.354Z,0.00
2023-04-10T02:30:27.291Z,1.00
2023-04-10T02:31:27.379Z,0.00
2023-04-10T02:32:27.358Z,0.00
2023-04-10T02:33:27.350Z,0.00
2023-04-10T02:34:27.280Z,0.00
2023-04-10T02:35:27.288Z,0.00
2023-04-10T02:36:27.285Z,0.00
2023-04-10T02:37:27.281Z,0.00
2023-04-10T02:38:27.236Z,0.00
2023-04-10T02:39:27.288Z,0.00
2023-04-10T02:40:27.211Z,0.00
2023-04-10T02:41:27.206Z,0.00
2023-04-10T02:42:27.252Z,0.00
2023-04-10T02:43:27.194Z,0.00
2023-04-10T02:44:27.183Z,0.00
2023-04-10T02:45:27.183Z,0.00
2023-04-10T02:46:27.207Z,0.00
2023-04-10T02:47:27.229Z,0.00
2023-04-10T02:48:27.124Z,0.00
2023-04-10T02:49:27.124Z,0.00
2023-04-10T02:50:27.105Z,0.00
2023-04-10T02:51:27.109Z,0.00
2023-04-10T02:52:27.096Z,0.00
2023-04-10T02:53:27.082Z,0.00
2023-04-10T02:54:27.077Z,0.00
2023-04-10T02:55:27.091Z,0.00
2023-04-10T02:56:27.041Z,0.00
2023-04-10T02:57:27.045Z,0.00
2023-04-10T02:58:27.040Z,0.00
2023-04-10T02:59:27.022Z,0.00
2023-04-10T03:00:27.018Z,0.00
2023-04-10T03:01:27.030Z,0.00
2023-04-10T03:02:27.171Z,0.00
2023-04-10T03:03:27.177Z,0.00
2023-04-10T03:04:27.019Z,0.00
2023-04-10T03:05:26.958Z,0.00
2023-04-10T03:06:27.066Z,0.00
2023-04-10T03:07:33.436Z,0.00
2023-04-10T03:08:26.920Z,0.00
2023-04-10T03:09:26.920Z,0.00
2023-04-10T03:10:26.890Z,0.00
2023-04-10T03:11:26.882Z,0.00
2023-04-10T03:12:26.898Z,0.00
2023-04-10T03:13:26.889Z,0.00
2023-04-10T03:14:26.853Z,0.00
2023-04-10T03:15:26.836Z,0.00
2023-04-10T03:16:26.851Z,0.00
2023-04-10T03:17:26.885Z,0.00
2023-04-10T03:18:26.816Z,0.00
2023-04-10T03:19:26.805Z,0.00
2023-04-10T03:20:26.818Z,0.00
2023-04-10T03:21:26.772Z,0.00
2023-04-10T03:22:26.770Z,0.00
2023-04-10T03:23:26.770Z,0.00
2023-04-10T03:24:26.758Z,0.00
2023-04-10T03:25:26.754Z,0.00
2023-04-10T03:26:26.751Z,0.00
2023-04-10T03:27:26.723Z,0.00
2023-04-10T03:28:26.698Z,0.00
2023-04-10T03:29:26.736Z,0.00
2023-04-10T03:30:26.681Z,0.00
2023-04-10T03:31:26.755Z,0.00
2023-04-10T03:32:26.670Z,0.00
2023-04-10T03:33:26.666Z,0.00
2023-04-10T03:34:26.662Z,0.00
2023-04-10T03:35:26.657Z,0.00
2023-04-10T03:36:26.619Z,0.00
2023-04-10T03:37:26.594Z,0.00
2023-04-10T03:38:26.672Z,0.00
2023-04-10T03:39:26.609Z,0.00
2023-04-10T03:40:26.570Z,0.00
2023-04-10T03:41:26.581Z,0.00
2023-04-10T03:42:26.552Z,0.00
2023-04-10T03:43:26.543Z,0.00
2023-04-10T03:44:26.524Z,0.00
2023-04-10T03:45:26.518Z,0.00
2023-04-10T03:46:26.552Z,0.00
2023-04-10T03:47:26.535Z,0.00
2023-04-10T03:48:26.495Z,0.00
2023-04-10T03:49:26.462Z,0.00
2023-04-10T03:50:26.471Z,0.00
2023-04-10T03:51:26.458Z,0.00
2023-04-10T03:52:26.446Z,0.00
2023-04-10T03:53:26.438Z,0.00
2023-04-10T03:54:26.475Z,0.00
2023-04-10T03:55:26.425Z,0.00
2023-04-10T03:56:26.393Z,0.00
2023-04-10T03:57:26.427Z,0.00
2023-04-10T03:58:26.380Z,0.00
2023-04-10T03:59:37.342Z,0.00
2023-04-10T04:00:26.404Z,0.00
2023-04-10T04:01:26.339Z,0.00
2023-04-10T04:02:26.540Z,0.00
2023-04-10T04:03:26.483Z,0.00
2023-04-10T04:04:26.431Z,0.00
2023-04-10T04:05:26.295Z,0.00
2023-04-10T04:06:26.334Z,0.00
2023-04-10T04:07:26.273Z,0.00
2023-04-10T04:08:26.289Z,0.00
2023-04-10T04:09:26.261Z,0.00
2023-04-10T04:10:26.268Z,0.00
2023-04-10T04:11:26.234Z,0.00
2023-04-10T04:12:26.256Z,0.00
2023-04-10T04:13:26.204Z,0.00
2023-04-10T04:14:26.208Z,0.00
2023-04-10T04:15:26.274Z,0.00
2023-04-10T04:16:26.152Z,1.00
2023-04-10T04:17:26.202Z,0.00
2023-04-10T04:18:26.147Z,1.00
2023-04-10T04:19:26.104Z,1.00
2023-04-10T04:20:33.238Z,1.00
2023-04-10T04:21:26.073Z,1.00
2023-04-10T04:22:26.748Z,2.00
2023-04-10T04:23:26.058Z,2.00
2023-04-10T04:24:26.048Z,1.00
2023-04-10T04:25:26.032Z,1.00
2023-04-10T04:26:26.036Z,2.00
2023-04-10T04:27:26.012Z,1.00
2023-04-10T04:28:26.724Z,1.00
2023-04-10T04:29:26.001Z,6.00
2023-04-10T04:30:26.005Z,3.00
2023-04-10T04:31:26.000Z,3.00
2023-04-10T04:32:25.984Z,3.00
2023-04-10T04:33:25.965Z,7.00
2023-04-10T04:34:25.953Z,12.00
2023-04-10T04:35:25.971Z,12.00
2023-04-10T04:36:25.944Z,13.00
2023-04-10T04:37:25.927Z,13.00
2023-04-10T04:38:25.905Z,10.00
2023-04-10T04:39:25.896Z,18.00
2023-04-10T04:40:25.906Z,19.00
2023-04-10T04:41:25.867Z,21.00
2023-04-10T04:42:25.887Z,24.00
2023-04-10T04:43:25.841Z,30.00
2023-04-10T04:44:25.845Z,34.00
2023-04-10T04:45:25.874Z,44.00
2023-04-10T04:46:25.918Z,46.00
2023-04-10T04:47:25.917Z,47.00
2023-04-10T04:48:25.813Z,47.00
2023-04-10T04:49:25.789Z,51.00
2023-04-10T04:50:25.811Z,52.00
2023-04-10T04:51:25.751Z,58.00
2023-04-10T04:52:25.762Z,59.00
2023-04-10T04:53:25.754Z,69.00
2023-04-10T04:54:25.789Z,70.00
2023-04-10T04:55:25.710Z,75.00
2023-04-10T04:56:25.720Z,84.00
2023-04-10T04:57:25.720Z,93.00
2023-04-10T04:58:25.719Z,103.00
2023-04-10T04:59:25.700Z,101.00
2023-04-10T05:00:25.707Z,110.00
2023-04-10T05:01:25.776Z,116.00
2023-04-10T05:02:25.743Z,126.00
2023-04-10T05:03:25.741Z,135.00
2023-04-10T05:04:25.702Z,136.00
2023-04-10T05:05:25.628Z,139.00
2023-04-10T05:06:25.661Z,141.00
2023-04-10T05:07:25.602Z,143.00
2023-04-10T05:08:25.598Z,153.00
2023-04-10T05:09:25.573Z,168.00
2023-04-10T05:10:25.567Z,178.00
2023-04-10T05:11:25.564Z,182.00
2023-04-10T05:12:25.545Z,197.00
2023-04-10T05:13:25.534Z,207.00
2023-04-10T05:14:25.534Z,215.00
2023-04-10T05:15:25.595Z,223.00
2023-04-10T05:16:25.513Z,229.00
2023-04-10T05:17:25.516Z,238.00
2023-04-10T05:18:25.532Z,247.00
2023-04-10T05:19:25.476Z,255.00
2023-04-10T05:20:25.481Z,270.00
2023-04-10T05:21:25.447Z,282.00
2023-04-10T05:22:25.455Z,292.00
2023-04-10T05:23:25.418Z,304.00
2023-04-10T05:24:25.424Z,314.00
2023-04-10T05:25:25.417Z,323.00
2023-04-10T05:26:25.427Z,338.00
2023-04-10T05:27:25.426Z,350.00
2023-04-10T05:28:25.411Z,363.00
2023-04-10T05:29:25.398Z,368.00
2023-04-10T05:30:25.387Z,375.00
2023-04-10T05:31:25.376Z,383.00
2023-04-10T05:32:25.406Z,392.00
2023-04-10T05:33:25.321Z,396.00
2023-04-10T05:34:32.468Z,399.00
2023-04-10T05:35:25.300Z,402.00
2023-04-10T05:36:26.833Z,412.00
2023-04-10T05:37:25.280Z,422.00
2023-04-10T05:38:25.272Z,432.00
2023-04-10T05:39:25.297Z,435.00
2023-04-10T05:40:25.290Z,440.00
2023-04-10T05:41:25.242Z,444.00
2023-04-10T05:42:25.237Z,446.00
2023-04-10T05:43:25.227Z,461.00
2023-04-10T05:44:25.222Z,468.00
2023-04-10T05:45:25.195Z,471.00
2023-04-10T05:46:25.243Z,470.00
2023-04-10T05:47:25.260Z,472.00
2023-04-10T05:48:25.183Z,476.00
2023-04-10T05:49:25.152Z,479.00
2023-04-10T05:50:25.192Z,490.00
2023-04-10T05:51:25.154Z,496.00
2023-04-10T05:52:25.164Z,509.00
2023-04-10T05:53:25.134Z,518.00
2023-04-10T05:54:25.119Z,530.00
2023-04-10T05:55:25.102Z,544.00
2023-04-10T05:56:25.118Z,556.00
2023-04-10T05:57:25.086Z,563.00
2023-04-10T05:58:25.087Z,575.00
2023-04-10T05:59:25.057Z,586.00
2023-04-10T06:00:25.059Z,602.00
2023-04-10T06:01:25.028Z,612.00
2023-04-10T06:02:25.163Z,635.00
2023-04-10T06:03:25.294Z,651.00
2023-04-10T06:04:25.181Z,666.00
2023-04-10T06:05:25.145Z,677.00
2023-04-10T06:06:25.009Z,706.00
2023-04-10T06:07:25.014Z,727.00
2023-04-10T06:08:24.972Z,743.00
2023-04-10T06:09:24.947Z,783.00
2023-04-10T06:10:24.979Z,827.00
2023-04-10T06:11:24.949Z,861.00
2023-04-10T06:12:24.929Z,877.00
2023-04-10T06:13:24.914Z,859.00
2023-04-10T06:14:24.914Z,918.00
2023-04-10T06:15:24.898Z,968.00
2023-04-10T06:16:24.941Z,1013.00
2023-04-10T06:17:24.913Z,1051.00
2023-04-10T06:18:24.887Z,1102.00
2023-04-10T06:19:24.879Z,1145.00
2023-04-10T06:20:24.854Z,1187.00
2023-04-10T06:21:24.827Z,1220.00
2023-04-10T06:22:24.863Z,1276.00
2023-04-10T06:23:24.812Z,1281.00
2023-04-10T06:24:24.844Z,1306.00
2023-04-10T06:25:24.856Z,1340.00
2023-04-10T06:26:24.777Z,1337.00
2023-04-10T06:27:24.756Z,1353.00
2023-04-10T06:28:24.785Z,1377.00
2023-04-10T06:29:24.774Z,1392.00
2023-04-10T06:30:24.748Z,1353.00
2023-04-10T06:31:24.784Z,1338.00
2023-04-10T06:32:24.723Z,1339.00
2023-04-10T06:33:26.308Z,1330.00
2023-04-10T06:34:24.830Z,1325.00
2023-04-10T06:35:24.730Z,1280.00
2023-04-10T06:36:24.688Z,1272.00
2023-04-10T06:37:24.664Z,1278.00
2023-04-10T06:38:24.707Z,1284.00
2023-04-10T06:39:24.638Z,1295.00
2023-04-10T06:40:24.655Z,1293.00
2023-04-10T06:41:24.680Z,1307.00
2023-04-10T06:42:24.613Z,1306.00
2023-04-10T06:43:24.591Z,1329.00
2023-04-10T06:44:24.650Z,1330.00
2023-04-10T06:45:24.579Z,1347.00
2023-04-10T06:46:24.649Z,1402.00
2023-04-10T06:47:24.601Z,1357.00
2023-04-10T06:48:31.101Z,1405.00
2023-04-10T06:49:25.387Z,1454.00
2023-04-10T06:50:24.516Z,1500.00
2023-04-10T06:51:25.106Z,1505.00
2023-04-10T06:52:24.514Z,1565.00
2023-04-10T06:53:24.480Z,1594.00
2023-04-10T06:54:24.487Z,1602.00
2023-04-10T06:55:24.481Z,1615.00
2023-04-10T06:56:24.462Z,1633.00
2023-04-10T06:57:24.462Z,1682.00
2023-04-10T06:58:24.461Z,1710.00
2023-04-10T06:59:24.435Z,1788.00
2023-04-10T07:00:24.429Z,1807.00
2023-04-10T07:01:25.279Z,1786.00
2023-04-10T07:02:24.658Z,1810.00
2023-04-10T07:03:24.430Z,1778.00
2023-04-10T07:04:24.402Z,1773.00
2023-04-10T07:05:24.372Z,1777.00
2023-04-10T07:06:24.367Z,1769.00
2023-04-10T07:07:24.350Z,1695.00
2023-04-10T07:08:24.342Z,1674.00
2023-04-10T07:09:24.381Z,1673.00
2023-04-10T07:10:24.322Z,1661.00
2023-04-10T07:11:24.295Z,1634.00
2023-04-10T07:12:24.319Z,1613.00
2023-04-10T07:13:24.285Z,1583.00
2023-04-10T07:14:24.304Z,1590.00
2023-04-10T07:15:24.254Z,1571.00
2023-04-10T07:16:24.309Z,1580.00
2023-04-10T07:17:24.331Z,1573.00
2023-04-10T07:18:24.244Z,1579.00
2023-04-10T07:19:24.236Z,1532.00
2023-04-10T07:20:24.271Z,1552.00
2023-04-10T07:21:24.238Z,1538.00
2023-04-10T07:22:24.185Z,1534.00
2023-04-10T07:23:24.168Z,1496.00
2023-04-10T07:24:24.169Z,1504.00
2023-04-10T07:25:24.173Z,1519.00
2023-04-10T07:26:24.195Z,1515.00
2023-04-10T07:27:24.124Z,1564.00
2023-04-10T07:28:24.345Z,1583.00
2023-04-10T07:29:24.121Z,1611.00
2023-04-10T07:30:24.122Z,1683.00
2023-04-10T07:31:24.715Z,1773.00
2023-04-10T07:32:24.275Z,1796.00
2023-04-10T07:33:24.105Z,1906.00
2023-04-10T07:34:24.079Z,1885.00
2023-04-10T07:35:24.088Z,1889.00
2023-04-10T07:36:24.073Z,1901.00
2023-04-10T07:37:24.042Z,1909.00
2023-04-10T07:38:24.029Z,1956.00
2023-04-10T07:39:24.060Z,2015.00
2023-04-10T07:40:23.989Z,1951.00
2023-04-10T07:41:24.021Z,1915.00
2023-04-10T07:42:24.017Z,1883.00
2023-04-10T07:43:24.002Z,1905.00
2023-04-10T07:44:23.944Z,1896.00
2023-04-10T07:45:23.958Z,1887.00
2023-04-10T07:46:24.707Z,1960.00
2023-04-10T07:47:23.969Z,1897.00
2023-04-10T07:48:23.934Z,1861.00
2023-04-10T07:49:23.940Z,1802.00
2023-04-10T07:50:23.950Z,1774.00
2023-04-10T07:51:23.913Z,1819.00
2023-04-10T07:52:23.890Z,1813.00
2023-04-10T07:53:23.863Z,1787.00
2023-04-10T07:54:23.882Z,1751.00
2023-04-10T07:55:23.852Z,1783.00
2023-04-10T07:56:23.874Z,1757.00
2023-04-10T07:57:23.885Z,1744.00
2023-04-10T07:58:23.810Z,1681.00
2023-04-10T07:59:23.804Z,1689.00
2023-04-10T08:00:23.773Z,1730.00
2023-04-10T08:01:30.299Z,1753.00
2023-04-10T08:02:24.001Z,1714.00
2023-04-10T08:04:23.821Z,1680.00
2023-04-10T08:05:23.921Z,1810.00
2023-04-10T08:06:23.812Z,1706.00
2023-04-10T08:07:23.709Z,1649.00
2023-04-10T08:08:23.710Z,1567.00
2023-04-10T08:09:23.726Z,1393.00
2023-04-10T08:10:23.669Z,1568.00
2023-04-10T08:11:23.670Z,1687.00
2023-04-10T08:12:23.645Z,1550.00
2023-04-10T08:13:23.654Z,1487.00
2023-04-10T08:14:23.621Z,1311.00
2023-04-10T08:15:23.677Z,1366.00
2023-04-10T08:16:23.652Z,1402.00
2023-04-10T08:17:23.677Z,1427.00
2023-04-10T08:18:23.730Z,1286.00
2023-04-10T08:19:23.625Z,1180.00
2023-04-10T08:20:23.640Z,1077.00
2023-04-10T08:21:23.658Z,1448.00
2023-04-10T08:22:23.558Z,1586.00
2023-04-10T08:23:23.536Z,1534.00
2023-04-10T08:24:23.646Z,1622.00
2023-04-10T08:25:23.601Z,1601.00
2023-04-10T08:26:23.531Z,1605.00
2023-04-10T08:27:23.597Z,1688.00
2023-04-10T08:28:23.508Z,1709.00
2023-04-10T08:30:23.533Z,1637.00
2023-04-10T08:31:23.668Z,1778.00
2023-04-10T08:32:23.461Z,1740.00
2023-04-10T08:33:23.442Z,1762.00
2023-04-10T08:34:23.419Z,1857.00
2023-04-10T08:35:23.411Z,1873.00
2023-04-10T08:36:23.410Z,1899.00
2023-04-10T08:37:23.419Z,1865.00
2023-04-10T08:38:23.403Z,1891.00
2023-04-10T08:39:23.375Z,1900.00
2023-04-10T08:40:23.406Z,1962.00
2023-04-10T08:41:23.368Z,1933.00
2023-04-10T08:42:23.334Z,1959.00
2023-04-10T08:43:23.326Z,2011.00
2023-04-10T08:44:23.343Z,2021.00
2023-04-10T08:45:23.335Z,2057.00
2023-04-10T08:46:23.359Z,2074.00
2023-04-10T08:47:23.311Z,2115.00
2023-04-10T08:48:23.275Z,2121.00
2023-04-10T08:49:23.267Z,2109.00
2023-04-10T08:50:23.244Z,2116.00
2023-04-10T08:51:26.047Z,2117.00
2023-04-10T08:52:23.264Z,2053.00
2023-04-10T08:53:23.223Z,2055.00
2023-04-10T08:54:23.232Z,2104.00
2023-04-10T08:55:23.216Z,2218.00
2023-04-10T08:56:23.296Z,2057.00
2023-04-10T08:57:23.195Z,1989.00
2023-04-10T08:58:23.157Z,1944.00
2023-04-10T08:59:23.254Z,1941.00
2023-04-10T09:00:23.732Z,1977.00
2023-04-10T09:01:23.159Z,2073.00
2023-04-10T09:02:24.357Z,2131.00
2023-04-10T09:03:23.301Z,2158.00
2023-04-10T09:04:23.168Z,2220.00
2023-04-10T09:05:23.098Z,2285.00
2023-04-10T09:06:23.108Z,2349.00
2023-04-10T09:07:23.077Z,2354.00
2023-04-10T09:08:23.098Z,2415.00
2023-04-10T09:09:23.057Z,2414.00
2023-04-10T09:10:23.035Z,2419.00
2023-04-10T09:11:23.062Z,2459.00
2023-04-10T09:12:23.025Z,2524.00
2023-04-10T09:13:23.026Z,2467.00
2023-04-10T09:14:22.992Z,2548.00
2023-04-10T09:15:23.019Z,2420.00
2023-04-10T09:16:23.048Z,2474.00
2023-04-10T09:17:23.044Z,2552.00
2023-04-10T09:18:22.957Z,2506.00
2023-04-10T09:19:22.946Z,2478.00
2023-04-10T09:20:22.947Z,2467.00
2023-04-10T09:21:22.929Z,2559.00
2023-04-10T09:22:22.919Z,2560.00
2023-04-10T09:23:22.907Z,2610.00
2023-04-10T09:24:22.904Z,2635.00
2023-04-10T09:25:22.881Z,2608.00
2023-04-10T09:26:22.876Z,2664.00
2023-04-10T09:27:22.878Z,2674.00
2023-04-10T09:28:22.846Z,2690.00
2023-04-10T09:29:22.964Z,2714.00
2023-04-10T09:30:22.813Z,2709.00
2023-04-10T09:31:22.922Z,2728.00
2023-04-10T09:32:22.841Z,2748.00
2023-04-10T09:33:22.840Z,2759.00
2023-04-10T09:34:22.838Z,2824.00
2023-04-10T09:35:22.796Z,2890.00
2023-04-10T09:36:22.808Z,2854.00
2023-04-10T09:37:22.771Z,2917.00
2023-04-10T09:38:22.733Z,2843.00
2023-04-10T09:39:22.746Z,2864.00
2023-04-10T09:40:22.727Z,2863.00
2023-04-10T09:41:22.733Z,2972.00
2023-04-10T09:42:22.723Z,2920.00
2023-04-10T09:43:22.727Z,3027.00
2023-04-10T09:44:23.634Z,2947.00
2023-04-10T09:45:22.773Z,2900.00
2023-04-10T09:46:22.707Z,2845.00
2023-04-10T09:47:22.668Z,2883.00
2023-04-10T09:48:22.638Z,2904.00
2023-04-10T09:49:22.719Z,2869.00
2023-04-10T09:50:22.608Z,2861.00
2023-04-10T09:51:22.598Z,2818.00
2023-04-10T09:52:22.633Z,2849.00
2023-04-10T09:53:22.596Z,2828.00
2023-04-10T09:54:22.591Z,2880.00
2023-04-10T09:55:22.567Z,2898.00
2023-04-10T09:56:22.601Z,2874.00
2023-04-10T09:57:22.583Z,2876.00
2023-04-10T09:58:22.523Z,2927.00
2023-04-10T09:59:22.561Z,2960.00
2023-04-10T10:00:22.517Z,2923.00
2023-04-10T10:01:22.525Z,2993.00
2023-04-10T10:02:22.739Z,2996.00
2023-04-10T10:03:22.646Z,2976.00
2023-04-10T10:04:22.482Z,2973.00
2023-04-10T10:05:22.485Z,2938.00
2023-04-10T10:06:22.439Z,2875.00
2023-04-10T10:07:22.451Z,2882.00
2023-04-10T10:08:22.488Z,2868.00
2023-04-10T10:09:22.436Z,2964.00
2023-04-10T10:10:22.414Z,2993.00
2023-04-10T10:11:22.407Z,2931.00
2023-04-10T10:12:22.384Z,3022.00
2023-04-10T10:13:22.415Z,2924.00
2023-04-10T10:14:22.370Z,2840.00
2023-04-10T10:15:22.363Z,2871.00
2023-04-10T10:16:22.355Z,2745.00
2023-04-10T10:17:22.405Z,2799.00
2023-04-10T10:18:22.319Z,2773.00
2023-04-10T10:19:22.353Z,2850.00
2023-04-10T10:20:22.328Z,2896.00
2023-04-10T10:21:22.343Z,2812.00
2023-04-10T10:22:22.272Z,2798.00
2023-04-10T10:23:22.276Z,2747.00
2023-04-10T10:24:22.289Z,2940.00
2023-04-10T10:25:22.281Z,2709.00
2023-04-10T10:26:22.251Z,2774.00
2023-04-10T10:27:22.244Z,3165.00
2023-04-10T10:28:22.238Z,3122.00
2023-04-10T10:29:28.738Z,3180.00
2023-04-10T10:30:30.056Z,2670.00
2023-04-10T10:31:22.424Z,2948.00
2023-04-10T10:32:22.182Z,2740.00
2023-04-10T10:33:22.181Z,2846.00
2023-04-10T10:34:22.161Z,2802.00
2023-04-10T10:35:23.023Z,2946.00
2023-04-10T10:36:22.160Z,2952.00
2023-04-10T10:37:22.126Z,2962.00
2023-04-10T10:38:22.185Z,2969.00
2023-04-10T10:39:22.131Z,2997.00
2023-04-10T10:40:22.102Z,2960.00
2023-04-10T10:41:22.093Z,2940.00
2023-04-10T10:42:22.073Z,2908.00
2023-04-10T10:43:22.086Z,2897.00
2023-04-10T10:44:22.075Z,2870.00
2023-04-10T10:45:22.086Z,2940.00
2023-04-10T10:46:22.075Z,2993.00
2023-04-10T10:47:22.105Z,3181.00
2023-04-10T10:48:22.015Z,3017.00
2023-04-10T10:49:22.005Z,2896.00
2023-04-10T10:50:23.474Z,3134.00
2023-04-10T10:51:22.033Z,3235.00
2023-04-10T10:52:21.969Z,3246.00
2023-04-10T10:53:21.961Z,3158.00
2023-04-10T10:54:21.957Z,3316.00
2023-04-10T10:55:22.015Z,3161.00
2023-04-10T10:56:22.665Z,3229.00
2023-04-10T10:57:21.925Z,3300.00
2023-04-10T10:58:22.099Z,3209.00
2023-04-10T10:59:21.901Z,3069.00
2023-04-10T11:00:21.905Z,2937.00
2023-04-10T11:01:21.947Z,2970.00
2023-04-10T11:02:22.014Z,2882.00
2023-04-10T11:03:22.132Z,2861.00
2023-04-10T11:04:21.856Z,2821.00
2023-04-10T11:05:21.828Z,2755.00
2023-04-10T11:06:21.824Z,2738.00
2023-04-10T11:07:21.812Z,2610.00
2023-04-10T11:08:21.809Z,2740.00
2023-04-10T11:09:21.822Z,2527.00
2023-04-10T11:10:21.799Z,2409.00
2023-04-10T11:11:21.795Z,2659.00
2023-04-10T11:12:21.802Z,2779.00
2023-04-10T11:13:21.759Z,2974.00
2023-04-10T11:14:21.714Z,2869.00
2023-04-10T11:15:21.724Z,2913.00
2023-04-10T11:16:21.784Z,2749.00
2023-04-10T11:17:21.749Z,2979.00
2023-04-10T11:18:21.677Z,2968.00
2023-04-10T11:19:23.271Z,2771.00
2023-04-10T11:20:21.669Z,2908.00
2023-04-10T11:21:21.650Z,2856.00
2023-04-10T11:22:21.713Z,2839.00
2023-04-10T11:23:21.653Z,2880.00
2023-04-10T11:24:21.679Z,2960.00
2023-04-10T11:25:21.671Z,2955.00
2023-04-10T11:26:21.604Z,2988.00
2023-04-10T11:27:21.611Z,3055.00
2023-04-10T11:28:21.602Z,3169.00
2023-04-10T11:29:21.572Z,3117.00
2023-04-10T11:30:21.558Z,3306.00
2023-04-10T11:31:21.581Z,3280.00
2023-04-10T11:32:21.553Z,3225.00
2023-04-10T11:33:21.528Z,3102.00
2023-04-10T11:34:21.538Z,3115.00
2023-04-10T11:35:21.522Z,3138.00
2023-04-10T11:36:21.489Z,3120.00
2023-04-10T11:37:21.483Z,3114.00
2023-04-10T11:38:21.469Z,3207.00
2023-04-10T11:39:21.543Z,3119.00
2023-04-10T11:40:21.438Z,3071.00
2023-04-10T11:41:21.454Z,3215.00
2023-04-10T11:42:21.451Z,3035.00
2023-04-10T11:43:27.997Z,3191.00
2023-04-10T11:44:22.893Z,3157.00
2023-04-10T11:45:21.428Z,3009.00
2023-04-10T11:46:22.060Z,3021.00
2023-04-10T11:47:21.371Z,2917.00
2023-04-10T11:48:21.361Z,3104.00
2023-04-10T11:49:21.387Z,3058.00
2023-04-10T11:50:21.373Z,2997.00
2023-04-10T11:51:21.325Z,2946.00
2023-04-10T11:52:21.323Z,2976.00
2023-04-10T11:53:21.317Z,3068.00
2023-04-10T11:54:21.331Z,2957.00
2023-04-10T11:55:21.306Z,3001.00
2023-04-10T11:56:21.325Z,2844.00
2023-04-10T11:57:21.275Z,2766.00
2023-04-10T11:58:21.304Z,2781.00
2023-04-10T11:59:21.254Z,2856.00
2023-04-10T12:00:21.242Z,2849.00
2023-04-10T12:01:21.233Z,2910.00
2023-04-10T12:02:21.314Z,2988.00
2023-04-10T12:03:21.321Z,2993.00
2023-04-10T12:04:21.398Z,2959.00
2023-04-10T12:05:21.176Z,3024.00
2023-04-10T12:06:21.167Z,3074.00
2023-04-10T12:07:21.175Z,3101.00
2023-04-10T12:08:21.180Z,3129.00
2023-04-10T12:09:21.141Z,3071.00
2023-04-10T12:10:21.171Z,3098.00
2023-04-10T12:11:21.150Z,2969.00
2023-04-10T12:12:21.130Z,2915.00
2023-04-10T12:13:21.107Z,2907.00
2023-04-10T12:14:21.115Z,3029.00
2023-04-10T12:15:21.058Z,3050.00
2023-04-10T12:16:21.336Z,3008.00
2023-04-10T12:17:21.076Z,3200.00
2023-04-10T12:18:21.047Z,3309.00
2023-04-10T12:19:21.051Z,3039.00
2023-04-10T12:20:21.061Z,2901.00
2023-04-10T12:21:21.027Z,3009.00
2023-04-10T12:22:20.998Z,3176.00
2023-04-10T12:23:20.988Z,3116.00
2023-04-10T12:24:20.995Z,3106.00
2023-04-10T12:25:20.986Z,2690.00
2023-04-10T12:26:20.968Z,2976.00
2023-04-10T12:27:20.946Z,3056.00
2023-04-10T12:28:20.954Z,3042.00
2023-04-10T12:29:20.927Z,2887.00
2023-04-10T12:30:20.928Z,2934.00
2023-04-10T12:31:20.948Z,3088.00
2023-04-10T12:32:20.962Z,3055.00
2023-04-10T12:33:20.869Z,2939.00
2023-04-10T12:34:20.878Z,2752.00
2023-04-10T12:35:20.870Z,2668.00
2023-04-10T12:36:20.870Z,2597.00